createdAt,value
2017-08-01T00:00:55.355Z,20.70
2017-08-01T00:03:21.636Z,20.70
2017-08-01T00:05:47.928Z,20.70
2017-08-01T00:08:14.935Z,20.70
2017-08-01T00:10:41.193Z,20.70
2017-08-01T00:13:07.473Z,20.80
2017-08-01T00:15:33.747Z,21.00
2017-08-01T00:18:00.024Z,20.90
2017-08-01T00:20:26.307Z,20.60
2017-08-01T00:22:52.557Z,20.80
2017-08-01T00:25:18.842Z,20.70
2017-08-01T00:27:45.138Z,20.60
2017-08-01T00:30:11.434Z,20.50
2017-08-01T00:32:37.731Z,20.70
2017-08-01T00:35:04.024Z,20.60
2017-08-01T00:37:30.314Z,20.80
2017-08-01T00:39:56.581Z,20.70
2017-08-01T00:42:22.856Z,20.50
2017-08-01T00:44:49.139Z,20.50
2017-08-01T00:47:15.421Z,20.50
2017-08-01T00:49:41.681Z,20.50
2017-08-01T00:52:07.970Z,20.70
2017-08-01T00:54:34.245Z,20.80
2017-08-01T00:57:00.534Z,20.70
2017-08-01T00:59:26.830Z,20.70
2017-08-01T01:01:53.148Z,20.80
2017-08-01T01:04:19.419Z,20.80
2017-08-01T01:06:45.704Z,20.80
2017-08-01T01:09:12.019Z,20.60
2017-08-01T01:11:39.292Z,20.70
2017-08-01T01:14:05.574Z,20.80
2017-08-01T01:16:31.857Z,20.80
2017-08-01T01:18:58.114Z,20.70
2017-08-01T01:21:24.384Z,20.70
2017-08-01T01:23:51.405Z,20.70
2017-08-01T01:26:17.669Z,20.60
2017-08-01T01:28:43.942Z,20.70
2017-08-01T01:31:10.248Z,20.50
2017-08-01T01:33:36.571Z,20.40
2017-08-01T01:36:02.861Z,20.40
2017-08-01T01:38:29.157Z,20.40
2017-08-01T01:40:55.440Z,20.20
2017-08-01T01:43:21.752Z,20.30
2017-08-01T01:45:48.789Z,20.20
2017-08-01T01:48:15.855Z,20.10
2017-08-01T01:50:42.143Z,20.00
2017-08-01T01:53:08.436Z,20.00
2017-08-01T01:55:34.716Z,20.10
2017-08-01T01:58:01.008Z,20.20
2017-08-01T02:00:27.324Z,20.10
2017-08-01T02:02:53.597Z,20.00
2017-08-01T02:05:19.888Z,20.00
2017-08-01T02:07:46.391Z,20.10
2017-08-01T02:10:12.750Z,20.30
2017-08-01T02:12:39.047Z,20.40
2017-08-01T02:15:05.334Z,20.50
2017-08-01T02:17:31.622Z,20.50
2017-08-01T02:19:57.992Z,20.30
2017-08-01T02:22:24.292Z,20.40
2017-08-01T02:24:50.629Z,20.50
2017-08-01T02:27:16.909Z,20.50
2017-08-01T02:29:43.209Z,20.20
2017-08-01T02:32:09.506Z,20.20
2017-08-01T02:34:35.833Z,20.30
2017-08-01T02:37:02.156Z,20.40
2017-08-01T02:39:29.198Z,20.50
2017-08-01T02:41:56.218Z,20.50
2017-08-01T02:44:22.501Z,20.50
2017-08-01T02:46:48.783Z,20.50
2017-08-01T02:49:15.065Z,20.60
2017-08-01T02:51:41.343Z,20.50
2017-08-01T02:54:07.629Z,20.50
2017-08-01T02:56:33.920Z,20.60
2017-08-01T02:59:00.199Z,20.60
2017-08-01T03:01:26.503Z,20.10
2017-08-01T03:03:52.816Z,20.00
2017-08-01T03:06:19.093Z,20.10
2017-08-01T03:08:45.389Z,20.30
2017-08-01T03:11:11.638Z,20.30
2017-08-01T03:13:37.925Z,20.30
2017-08-01T03:16:04.929Z,20.20
2017-08-01T03:18:31.227Z,20.20
2017-08-01T03:20:57.513Z,20.20
2017-08-01T03:23:23.833Z,20.20
2017-08-01T03:25:50.100Z,19.90
2017-08-01T03:28:17.116Z,20.10
2017-08-01T03:30:43.389Z,20.10
2017-08-01T03:33:09.659Z,20.10
2017-08-01T03:35:35.947Z,20.10
2017-08-01T03:38:02.208Z,20.20
2017-08-01T03:40:28.506Z,20.20
2017-08-01T03:42:54.751Z,20.00
2017-08-01T03:45:21.049Z,20.20
2017-08-01T03:47:47.298Z,20.20
2017-08-01T03:50:13.632Z,20.30
2017-08-01T03:52:39.898Z,20.10
2017-08-01T03:55:07.211Z,19.80
2017-08-01T03:57:33.476Z,19.80
2017-08-01T03:59:59.776Z,19.90
2017-08-01T04:02:26.026Z,19.90
2017-08-01T04:04:52.322Z,20.10
2017-08-01T04:07:18.604Z,20.10
2017-08-01T04:09:44.869Z,20.10
2017-08-01T04:12:11.180Z,20.20
2017-08-01T04:14:37.449Z,20.20
2017-08-01T04:17:03.731Z,20.20
2017-08-01T04:19:29.995Z,20.10
2017-08-01T04:21:56.281Z,20.10
2017-08-01T04:24:22.570Z,20.30
2017-08-01T04:26:48.853Z,20.20
2017-08-01T04:29:15.117Z,20.00
2017-08-01T04:31:41.393Z,19.90
2017-08-01T04:34:07.701Z,20.00
2017-08-01T04:36:33.977Z,20.00
2017-08-01T04:39:01.020Z,19.90
2017-08-01T04:41:27.260Z,19.80
2017-08-01T04:43:54.280Z,19.70
2017-08-01T04:46:20.565Z,19.70
2017-08-01T04:48:46.868Z,19.80
2017-08-01T04:51:13.404Z,19.80
2017-08-01T04:53:40.451Z,19.90
2017-08-01T04:56:06.721Z,19.80
2017-08-01T04:58:33.025Z,20.00
2017-08-01T05:00:59.299Z,20.30
2017-08-01T05:03:25.603Z,20.30
2017-08-01T05:05:51.878Z,20.30
2017-08-01T05:08:18.953Z,19.90
2017-08-01T05:10:45.276Z,19.80
2017-08-01T05:13:12.276Z,19.90
2017-08-01T05:15:38.557Z,19.90
2017-08-01T05:18:04.847Z,19.70
2017-08-01T05:20:31.904Z,19.20
2017-08-01T05:22:58.180Z,19.20
2017-08-01T05:25:24.455Z,19.60
2017-08-01T05:27:50.718Z,19.80
2017-08-01T05:30:17.008Z,19.70
2017-08-01T05:32:43.327Z,19.90
2017-08-01T05:35:09.648Z,19.90
2017-08-01T05:37:36.679Z,19.90
2017-08-01T05:40:03.772Z,20.10
2017-08-01T05:42:30.033Z,20.30
2017-08-01T05:44:56.323Z,20.10
2017-08-01T05:47:22.589Z,20.20
2017-08-01T05:49:48.891Z,20.10
2017-08-01T05:52:15.172Z,20.20
2017-08-01T05:54:41.448Z,20.30
2017-08-01T05:57:08.713Z,20.20
2017-08-01T05:59:34.992Z,20.20
2017-08-01T06:02:01.302Z,20.40
2017-08-01T06:04:27.616Z,20.50
2017-08-01T06:06:54.668Z,20.50
2017-08-01T06:09:20.970Z,20.40
2017-08-01T06:11:47.263Z,20.50
2017-08-01T06:14:13.636Z,20.50
2017-08-01T06:16:39.896Z,20.40
2017-08-01T06:19:06.193Z,20.50
2017-08-01T06:21:33.198Z,20.70
2017-08-01T06:23:59.517Z,20.70
2017-08-01T06:26:25.807Z,20.70
2017-08-01T06:28:52.126Z,20.80
2017-08-01T06:31:18.397Z,20.90
2017-08-01T06:33:44.701Z,20.90
2017-08-01T06:36:11.007Z,20.90
2017-08-01T06:38:37.287Z,21.00
2017-08-01T06:41:03.558Z,20.90
2017-08-01T06:43:29.870Z,20.90
2017-08-01T06:45:56.150Z,20.90
2017-08-01T06:48:23.229Z,21.10
2017-08-01T06:50:49.529Z,21.10
2017-08-01T06:53:15.792Z,21.10
2017-08-01T06:55:42.087Z,21.10
2017-08-01T06:58:08.406Z,21.00
2017-08-01T07:00:34.713Z,21.20
2017-08-01T07:03:00.986Z,21.20
2017-08-01T07:05:27.264Z,21.20
2017-08-01T07:07:53.540Z,21.10
2017-08-01T07:10:19.842Z,21.20
2017-08-01T07:12:46.112Z,21.30
2017-08-01T07:15:12.400Z,21.50
2017-08-01T07:17:38.681Z,21.60
2017-08-01T07:20:04.952Z,21.60
2017-08-01T07:22:31.263Z,21.70
2017-08-01T07:24:57.581Z,21.70
2017-08-01T07:27:23.893Z,21.70
2017-08-01T07:29:50.168Z,21.70
2017-08-01T07:32:16.493Z,21.80
2017-08-01T07:34:42.765Z,21.80
2017-08-01T07:37:09.040Z,21.80
2017-08-01T07:39:35.326Z,21.80
2017-08-01T07:42:01.593Z,21.80
2017-08-01T07:44:27.880Z,21.80
2017-08-01T07:46:54.170Z,21.80
2017-08-01T07:49:20.470Z,21.80
2017-08-01T07:51:46.762Z,21.80
2017-08-01T07:54:13.093Z,21.80
2017-08-01T07:56:40.224Z,21.80
2017-08-01T07:59:06.568Z,21.80
2017-08-01T08:01:32.850Z,21.80
2017-08-01T08:03:59.138Z,21.90
2017-08-01T08:06:25.415Z,22.00
2017-08-01T08:08:51.715Z,22.10
2017-08-01T08:11:18.016Z,22.10
2017-08-01T08:13:45.037Z,22.00
2017-08-01T08:16:11.325Z,22.00
2017-08-01T08:18:37.612Z,22.00
2017-08-01T08:21:04.671Z,22.10
2017-08-01T08:23:30.949Z,22.10
2017-08-01T08:25:57.244Z,22.10
2017-08-01T08:28:23.524Z,22.20
2017-08-01T08:30:49.818Z,22.20
2017-08-01T08:33:16.118Z,22.10
2017-08-01T08:35:50.166Z,22.30
2017-08-01T08:38:16.439Z,22.20
2017-08-01T08:40:43.473Z,22.40
2017-08-01T08:43:10.169Z,22.40
2017-08-01T08:45:36.446Z,22.40
2017-08-01T08:48:02.741Z,22.50
2017-08-01T08:50:29.019Z,22.50
2017-08-01T08:52:56.048Z,22.80
2017-08-01T08:55:22.339Z,22.70
2017-08-01T08:57:48.624Z,22.70
2017-08-01T09:00:14.910Z,22.80
2017-08-01T09:02:41.204Z,23.00
2017-08-01T09:05:08.217Z,23.00
2017-08-01T09:07:34.520Z,23.00
2017-08-01T09:10:00.788Z,23.10
2017-08-01T09:12:27.829Z,23.20
2017-08-01T09:14:54.868Z,23.30
2017-08-01T09:17:28.055Z,23.20
2017-08-01T09:19:54.374Z,23.20
2017-08-01T09:22:20.673Z,23.30
2017-08-01T09:24:46.964Z,23.20
2017-08-01T09:27:13.274Z,23.20
2017-08-01T09:29:39.560Z,23.40
2017-08-01T09:32:05.831Z,23.40
2017-08-01T09:34:32.144Z,23.50
2017-08-01T09:36:58.486Z,23.60
2017-08-01T09:39:24.787Z,23.50
2017-08-01T09:41:51.049Z,23.40
2017-08-01T09:44:17.379Z,23.50
2017-08-01T09:46:43.713Z,23.50
2017-08-01T09:49:10.049Z,23.80
2017-08-01T09:51:36.352Z,23.80
2017-08-01T09:54:02.639Z,23.90
2017-08-01T09:56:28.946Z,24.00
2017-08-01T09:58:55.992Z,24.10
2017-08-01T10:01:23.029Z,24.30
2017-08-01T10:03:49.300Z,24.20
2017-08-01T10:06:15.597Z,24.30
2017-08-01T10:08:42.637Z,24.60
2017-08-01T10:11:08.975Z,24.60
2017-08-01T10:13:36.016Z,24.80
2017-08-01T10:16:02.324Z,24.70
2017-08-01T10:18:28.631Z,24.70
2017-08-01T10:20:54.929Z,24.80
2017-08-01T10:23:21.969Z,25.30
2017-08-01T10:25:49.009Z,25.60
2017-08-01T10:28:15.338Z,25.60
2017-08-01T10:30:42.374Z,25.60
2017-08-01T10:33:08.652Z,25.50
2017-08-01T10:35:34.937Z,25.50
2017-08-01T10:38:02.001Z,25.60
2017-08-01T10:40:28.282Z,25.50
2017-08-01T10:42:54.723Z,25.80
2017-08-01T10:45:21.035Z,25.80
2017-08-01T10:47:47.344Z,25.90
2017-08-01T10:50:13.682Z,26.00
2017-08-01T10:52:39.965Z,25.80
2017-08-01T10:55:06.267Z,25.90
2017-08-01T10:57:34.153Z,25.80
2017-08-01T11:00:00.431Z,25.80
2017-08-01T11:02:26.721Z,26.00
2017-08-01T11:04:53.011Z,25.90
2017-08-01T11:07:19.282Z,25.80
2017-08-01T11:09:45.568Z,25.70
2017-08-01T11:12:11.858Z,25.60
2017-08-01T11:14:38.943Z,25.40
2017-08-01T11:17:05.236Z,25.40
2017-08-01T11:19:31.547Z,25.60
2017-08-01T11:21:58.594Z,25.80
2017-08-01T11:24:24.895Z,25.70
2017-08-01T11:26:51.206Z,25.90
2017-08-01T11:29:17.503Z,26.10
2017-08-01T11:31:43.794Z,26.20
2017-08-01T11:34:10.112Z,26.50
2017-08-01T11:36:36.414Z,26.50
2017-08-01T11:39:02.748Z,26.70
2017-08-01T11:41:29.079Z,26.70
2017-08-01T11:43:55.365Z,26.70
2017-08-01T11:46:22.718Z,25.90
2017-08-01T11:48:49.736Z,25.60
2017-08-01T11:51:16.005Z,25.60
2017-08-01T11:53:43.015Z,25.60
2017-08-01T11:56:09.385Z,25.60
2017-08-01T11:58:35.710Z,25.60
2017-08-01T12:01:02.768Z,25.40
2017-08-01T12:03:29.071Z,25.30
2017-08-01T12:05:56.100Z,25.60
2017-08-01T12:08:22.413Z,25.50
2017-08-01T12:10:48.699Z,25.40
2017-08-01T12:13:15.733Z,25.60
2017-08-01T12:15:42.849Z,25.60
2017-08-01T12:18:09.108Z,25.60
2017-08-01T12:20:35.393Z,25.60
2017-08-01T12:23:01.710Z,25.50
2017-08-01T12:25:28.041Z,25.50
2017-08-01T12:27:54.329Z,25.40
2017-08-01T12:30:20.665Z,25.20
2017-08-01T12:32:47.717Z,25.00
2017-08-01T12:35:14.056Z,25.00
2017-08-01T12:37:40.337Z,25.00
2017-08-01T12:40:06.637Z,24.90
2017-08-01T12:42:32.964Z,24.80
2017-08-01T12:44:59.246Z,24.60
2017-08-01T12:47:26.293Z,24.60
2017-08-01T12:49:53.314Z,24.60
2017-08-01T12:52:19.601Z,24.60
2017-08-01T12:54:46.740Z,24.50
2017-08-01T12:57:13.789Z,24.60
2017-08-01T12:59:40.077Z,24.50
2017-08-01T13:02:06.384Z,24.60
2017-08-01T13:04:32.644Z,24.70
2017-08-01T13:06:58.971Z,25.00
2017-08-01T13:09:25.260Z,25.00
2017-08-01T13:11:51.539Z,25.60
2017-08-01T13:14:17.862Z,26.10
2017-08-01T13:16:44.162Z,26.40
2017-08-01T13:19:10.476Z,26.30
2017-08-01T13:21:36.763Z,26.40
2017-08-01T13:24:03.803Z,25.90
2017-08-01T13:26:30.154Z,25.90
2017-08-01T13:28:57.187Z,25.90
2017-08-01T13:31:23.474Z,25.80
2017-08-01T13:33:56.728Z,25.90
2017-08-01T13:36:23.025Z,26.00
2017-08-01T13:38:49.313Z,26.30
2017-08-01T13:41:15.620Z,26.30
2017-08-01T13:43:41.915Z,26.50
2017-08-01T13:46:08.188Z,26.20
2017-08-01T13:48:34.477Z,26.00
2017-08-01T13:51:00.785Z,26.20
2017-08-01T13:53:27.066Z,26.40
2017-08-01T13:55:53.352Z,26.50
2017-08-01T13:58:19.634Z,26.80
2017-08-01T14:00:46.653Z,27.60
2017-08-01T14:03:13.701Z,28.30
2017-08-01T14:05:39.978Z,28.20
2017-08-01T14:08:06.276Z,28.80
2017-08-01T14:10:33.842Z,29.10
2017-08-01T14:13:00.143Z,29.10
2017-08-01T14:15:26.442Z,28.30
2017-08-01T14:17:52.731Z,27.40
2017-08-01T14:20:19.033Z,26.80
2017-08-01T14:22:45.333Z,26.10
2017-08-01T14:25:11.640Z,26.10
2017-08-01T14:27:37.952Z,26.20
2017-08-01T14:30:04.268Z,26.30
2017-08-01T14:32:31.304Z,26.10
2017-08-01T14:34:57.590Z,26.00
2017-08-01T14:37:23.904Z,26.10
2017-08-01T14:39:50.167Z,25.60
2017-08-01T14:42:16.455Z,25.60
2017-08-01T14:44:42.740Z,25.60
2017-08-01T14:47:09.041Z,25.70
2017-08-01T14:49:35.332Z,25.50
2017-08-01T14:52:01.630Z,25.20
2017-08-01T14:54:27.893Z,25.40
2017-08-01T14:56:54.172Z,25.60
2017-08-01T14:59:20.473Z,25.50
2017-08-01T15:01:46.751Z,25.50
2017-08-01T15:04:13.086Z,25.00
2017-08-01T15:06:39.375Z,25.10
2017-08-01T15:09:05.694Z,24.90
2017-08-01T15:11:31.972Z,24.90
2017-08-01T15:13:58.264Z,24.80
2017-08-01T15:16:24.568Z,24.90
2017-08-01T15:18:50.864Z,24.80
2017-08-01T15:21:17.911Z,25.10
2017-08-01T15:23:44.946Z,25.20
2017-08-01T15:26:11.336Z,25.10
2017-08-01T15:28:37.668Z,25.00
2017-08-01T15:31:03.939Z,24.80
2017-08-01T15:33:30.256Z,24.60
2017-08-01T15:35:56.540Z,24.70
2017-08-01T15:38:22.817Z,24.60
2017-08-01T15:40:49.102Z,24.60
2017-08-01T15:43:15.372Z,24.60
2017-08-01T15:45:41.709Z,24.80
2017-08-01T15:48:07.973Z,24.60
2017-08-01T15:50:35.008Z,24.20
2017-08-01T15:53:02.033Z,24.00
2017-08-01T15:55:28.316Z,23.90
2017-08-01T15:57:54.555Z,24.00
2017-08-01T16:00:20.851Z,24.10
2017-08-01T16:02:47.120Z,24.00
2017-08-01T16:05:13.435Z,24.10
2017-08-01T16:07:39.727Z,24.20
2017-08-01T16:10:06.790Z,24.40
2017-08-01T16:12:33.059Z,24.40
2017-08-01T16:14:59.339Z,24.50
2017-08-01T16:17:25.640Z,24.50
2017-08-01T16:19:51.951Z,24.50
2017-08-01T16:22:18.259Z,24.40
2017-08-01T16:24:44.544Z,24.40
2017-08-01T16:27:10.828Z,24.30
2017-08-01T16:29:37.122Z,24.10
2017-08-01T16:32:03.388Z,24.20
2017-08-01T16:34:29.654Z,24.20
2017-08-01T16:36:55.975Z,24.30
2017-08-01T16:39:22.253Z,24.40
2017-08-01T16:41:48.523Z,24.40
2017-08-01T16:44:14.802Z,24.40
2017-08-01T16:46:41.795Z,24.20
2017-08-01T16:49:08.065Z,24.10
2017-08-01T16:51:34.343Z,24.10
2017-08-01T16:54:00.623Z,24.00
2017-08-01T16:56:27.637Z,23.40
2017-08-01T16:58:53.908Z,23.30
2017-08-01T17:01:20.154Z,22.70
2017-08-01T17:03:46.458Z,21.80
2017-08-01T17:06:13.490Z,20.80
2017-08-01T17:08:39.795Z,20.80
2017-08-01T17:11:06.065Z,20.70
2017-08-01T17:13:32.367Z,20.60
2017-08-01T17:15:59.406Z,20.90
2017-08-01T17:18:25.682Z,20.90
2017-08-01T17:20:51.978Z,21.00
2017-08-01T17:23:18.239Z,21.10
2017-08-01T17:25:44.552Z,21.40
2017-08-01T17:28:11.574Z,21.60
2017-08-01T17:30:37.845Z,21.60
2017-08-01T17:33:04.114Z,21.60
2017-08-01T17:35:30.463Z,21.40
2017-08-01T17:37:56.729Z,21.50
2017-08-01T17:40:23.012Z,21.70
2017-08-01T17:42:49.274Z,21.90
2017-08-01T17:45:16.286Z,22.00
2017-08-01T17:47:42.541Z,22.00
2017-08-01T17:50:08.820Z,22.00
2017-08-01T17:52:35.099Z,21.80
2017-08-01T17:55:01.382Z,21.90
2017-08-01T17:57:27.666Z,22.10
2017-08-01T17:59:54.704Z,21.80
2017-08-01T18:02:20.980Z,21.80
2017-08-01T18:04:47.258Z,21.80
2017-08-01T18:07:13.548Z,21.70
2017-08-01T18:09:39.800Z,21.70
2017-08-01T18:12:06.059Z,21.70
2017-08-01T18:14:33.088Z,21.80
2017-08-01T18:16:59.345Z,21.70
2017-08-01T18:19:25.660Z,21.50
2017-08-01T18:21:51.943Z,21.70
2017-08-01T18:24:18.263Z,21.30
2017-08-01T18:26:44.553Z,21.60
2017-08-01T18:29:11.589Z,21.70
2017-08-01T18:31:37.988Z,21.70
2017-08-01T18:34:04.291Z,21.40
2017-08-01T18:36:30.542Z,21.50
2017-08-01T18:38:56.836Z,21.90
2017-08-01T18:41:23.103Z,21.70
2017-08-01T18:43:49.374Z,21.60
2017-08-01T18:46:16.403Z,21.40
2017-08-01T18:48:42.662Z,21.40
2017-08-01T18:51:08.957Z,21.50
2017-08-01T18:53:35.220Z,21.40
2017-08-01T18:56:02.269Z,21.20
2017-08-01T18:58:29.304Z,21.30
2017-08-01T19:00:57.022Z,21.20
2017-08-01T19:03:24.086Z,21.20
2017-08-01T19:05:50.420Z,21.20
2017-08-01T19:08:16.706Z,21.10
2017-08-01T19:10:43.028Z,20.70
2017-08-01T19:13:09.308Z,20.80
2017-08-01T19:15:36.492Z,20.60
2017-08-01T19:18:02.816Z,20.80
2017-08-01T19:20:29.181Z,21.00
2017-08-01T19:22:55.531Z,20.50
2017-08-01T19:25:21.885Z,20.80
2017-08-01T19:27:49.148Z,20.90
2017-08-01T19:30:16.660Z,20.60
2017-08-01T19:32:43.245Z,20.50
2017-08-01T19:35:09.543Z,20.70
2017-08-01T19:37:35.824Z,21.10
2017-08-01T19:40:02.170Z,20.90
2017-08-01T19:42:28.428Z,20.60
2017-08-01T19:44:54.726Z,21.00
2017-08-01T19:47:21.116Z,21.20
2017-08-01T19:49:47.418Z,21.40
2017-08-01T19:52:13.789Z,21.20
2017-08-01T19:54:40.156Z,21.20
2017-08-01T19:57:06.444Z,21.30
2017-08-01T19:59:34.398Z,21.10
2017-08-01T20:02:00.725Z,21.00
2017-08-01T20:04:27.042Z,21.10
2017-08-01T20:06:53.318Z,20.90
2017-08-01T20:09:20.261Z,20.70
2017-08-01T20:11:46.578Z,20.80
2017-08-01T20:14:14.523Z,20.50
2017-08-01T20:16:41.084Z,20.30
2017-08-01T20:19:08.230Z,20.10
2017-08-01T20:21:34.558Z,20.30
2017-08-01T20:24:00.872Z,20.30
2017-08-01T20:26:27.170Z,19.60
2017-08-01T20:28:53.500Z,19.70
2017-08-01T20:31:19.796Z,19.70
2017-08-01T20:33:46.092Z,19.60
2017-08-01T20:36:12.394Z,19.70
2017-08-01T20:38:39.390Z,20.10
2017-08-01T20:41:05.692Z,20.00
2017-08-01T20:43:31.998Z,20.10
2017-08-01T20:45:58.304Z,20.10
2017-08-01T20:48:24.601Z,19.90
2017-08-01T20:50:50.886Z,19.90
2017-08-01T20:53:17.187Z,20.10
2017-08-01T20:55:43.538Z,20.30
2017-08-01T20:58:09.887Z,20.30
2017-08-01T21:00:36.143Z,20.50
2017-08-01T21:03:02.448Z,20.60
2017-08-01T21:05:28.708Z,20.40
2017-08-01T21:07:55.063Z,20.50
2017-08-01T21:10:21.327Z,20.30
2017-08-01T21:12:47.618Z,20.30
2017-08-01T21:15:14.646Z,20.80
2017-08-01T21:17:40.944Z,20.70
2017-08-01T21:20:07.226Z,20.70
2017-08-01T21:22:34.223Z,20.90
2017-08-01T21:25:00.516Z,20.80
2017-08-01T21:27:26.789Z,20.30
2017-08-01T21:29:53.055Z,20.00
2017-08-01T21:32:20.059Z,19.70
2017-08-01T21:34:46.346Z,19.70
2017-08-01T21:37:12.649Z,19.80
2017-08-01T21:39:38.952Z,20.10
2017-08-01T21:42:05.222Z,20.00
2017-08-01T21:44:31.484Z,19.70
2017-08-01T21:46:57.755Z,19.50
2017-08-01T21:49:24.010Z,19.40
2017-08-01T21:51:51.029Z,19.40
2017-08-01T21:54:17.302Z,19.40
2017-08-01T21:56:43.568Z,19.20
2017-08-01T21:59:09.843Z,19.40
2017-08-01T22:01:36.855Z,19.20
2017-08-01T22:04:03.933Z,19.50
2017-08-01T22:06:30.939Z,19.60
2017-08-01T22:08:57.204Z,19.60
2017-08-01T22:11:24.240Z,19.10
2017-08-01T22:13:51.272Z,19.00
2017-08-01T22:16:17.548Z,18.90
2017-08-01T22:18:43.826Z,18.90
2017-08-01T22:21:10.085Z,18.90
2017-08-01T22:23:37.098Z,18.80
2017-08-01T22:26:03.361Z,18.80
2017-08-01T22:28:30.382Z,19.20
2017-08-01T22:30:56.636Z,19.20
2017-08-01T22:33:23.713Z,19.10
2017-08-01T22:35:49.984Z,19.10
2017-08-01T22:38:16.255Z,19.00
2017-08-01T22:40:49.565Z,18.90
2017-08-01T22:43:15.845Z,18.70
2017-08-01T22:45:42.849Z,18.70
2017-08-01T22:48:09.122Z,18.70
2017-08-01T22:50:35.405Z,19.00
2017-08-01T22:53:01.700Z,19.20
2017-08-01T22:55:28.718Z,19.00
2017-08-01T22:57:54.975Z,19.00
2017-08-01T23:00:21.975Z,18.90
2017-08-01T23:02:48.257Z,18.90
2017-08-01T23:05:15.273Z,18.70
2017-08-01T23:07:41.568Z,18.70
2017-08-01T23:10:07.925Z,18.70
2017-08-01T23:12:34.197Z,18.70
2017-08-01T23:15:00.481Z,18.40
2017-08-01T23:17:26.769Z,18.40
2017-08-01T23:19:53.020Z,18.40
2017-08-01T23:22:19.292Z,18.60
2017-08-01T23:24:45.587Z,18.40
2017-08-01T23:27:11.862Z,18.30
2017-08-01T23:29:38.860Z,18.10
2017-08-01T23:32:05.124Z,18.10
2017-08-01T23:34:31.382Z,18.20
2017-08-01T23:36:57.724Z,18.10
2017-08-01T23:39:23.981Z,18.10
2017-08-01T23:41:50.252Z,18.00
2017-08-01T23:44:16.546Z,18.00
2017-08-01T23:46:42.786Z,18.10
2017-08-01T23:49:09.056Z,18.10
2017-08-01T23:51:35.338Z,18.10
2017-08-01T23:54:01.608Z,18.10
2017-08-01T23:56:27.886Z,18.00
2017-08-01T23:58:54.150Z,17.40
